Time;durP1;ratioP1;P1;durP2;ratioP2;P2;SDS_P1;SDS_P2;PMS_P1;PMS_P2;Temp;Humidity;BMP_temperature;BMP_pressure;BME280_temperature;BME280_humidity;BME280_pressure;Samples;Min_cycle;Max_cycle;Signal;HPM_P1;HPM_P2
2023/08/02 00:02:12;;;;;;;2.97;1.45;;;21.00;65.00;;;;;;4896403;29;21005;-80
2023/08/02 00:04:38;;;;;;;2.05;1.38;;;21.00;65.00;;;;;;4881547;29;20181;-81
2023/08/02 00:07:04;;;;;;;2.90;1.60;;;21.00;65.00;;;;;;4900521;29;20482;-81
2023/08/02 00:09:31;;;;;;;2.88;1.50;;;20.90;65.00;;;;;;4897029;29;20025;-80
2023/08/02 00:11:57;;;;;;;2.90;1.35;;;20.90;65.10;;;;;;4897895;29;20032;-81
2023/08/02 00:14:23;;;;;;;2.15;1.48;;;20.90;65.20;;;;;;4895032;29;20502;-81
2023/08/02 00:16:48;;;;;;;2.35;1.33;;;20.90;65.10;;;;;;4879371;29;20044;-81
2023/08/02 00:19:15;;;;;;;2.42;1.40;;;20.90;65.10;;;;;;4891415;29;20490;-80
2023/08/02 00:21:41;;;;;;;2.42;1.33;;;20.90;65.10;;;;;;4901705;29;20037;-81
2023/08/02 00:24:07;;;;;;;2.65;1.55;;;20.80;65.10;;;;;;4894676;29;20028;-81
2023/08/02 00:26:33;;;;;;;2.85;1.23;;;20.80;65.10;;;;;;4912393;29;20119;-80
2023/08/02 00:28:59;;;;;;;2.90;1.40;;;20.90;65.20;;;;;;4880241;29;20688;-80
2023/08/02 00:31:25;;;;;;;1.95;1.17;;;20.80;65.20;;;;;;4895282;29;20419;-80
2023/08/02 00:33:51;;;;;;;2.38;1.40;;;20.80;65.20;;;;;;4879435;29;20542;-80
2023/08/02 00:36:17;;;;;;;3.25;1.70;;;20.80;65.20;;;;;;4880144;29;20111;-81
2023/08/02 00:38:42;;;;;;;1.85;1.40;;;20.80;65.30;;;;;;4908016;29;20131;-80
2023/08/02 00:41:09;;;;;;;1.98;1.50;;;20.70;65.20;;;;;;4896744;29;20029;-81
2023/08/02 00:43:39;;;;;;;3.03;1.58;;;20.70;65.30;;;;;;4878176;29;20032;-80
2023/08/02 00:46:05;;;;;;;2.33;1.50;;;20.70;65.30;;;;;;4908758;29;20683;-80
2023/08/02 00:48:32;;;;;;;2.85;1.58;;;20.70;65.30;;;;;;4895947;29;20040;-80
2023/08/02 00:50:57;;;;;;;2.38;1.50;;;20.70;65.40;;;;;;4911810;29;20149;-80
2023/08/02 00:53:23;;;;;;;2.70;1.40;;;20.60;65.30;;;;;;4896103;29;20128;-81
2023/08/02 00:55:49;;;;;;;1.85;1.38;;;20.60;65.40;;;;;;4916229;29;20054;-80
2023/08/02 00:58:15;;;;;;;2.75;1.48;;;20.60;65.50;;;;;;4894327;29;20490;-81
2023/08/02 01:00:41;;;;;;;2.20;1.42;;;20.60;65.50;;;;;;4878751;29;20055;-80
2023/08/02 01:03:07;;;;;;;2.58;1.55;;;20.50;65.40;;;;;;4888965;29;20035;-80
2023/08/02 01:05:39;;;;;;;3.83;1.63;;;20.50;65.50;;;;;;4896510;29;20119;-81
2023/08/02 01:08:09;;;;;;;2.85;1.35;;;20.50;65.50;;;;;;4895268;29;20041;-80
2023/08/02 01:10:45;;;;;;;1.98;1.40;;;20.50;65.50;;;;;;4910925;29;20454;-80
2023/08/02 01:13:14;;;;;;;2.38;1.60;;;20.50;65.60;;;;;;4894399;29;20054;-80
2023/08/02 01:15:40;;;;;;;3.08;1.33;;;20.50;65.60;;;;;;4879607;29;20041;-80
2023/08/02 01:18:07;;;;;;;2.50;1.50;;;20.40;65.60;;;;;;4895310;29;20096;-80
2023/08/02 01:20:33;;;;;;;2.63;1.58;;;20.40;65.60;;;;;;4879294;29;20062;-80
2023/08/02 01:22:58;;;;;;;1.63;1.45;;;20.30;65.60;;;;;;4897638;29;20115;-79
2023/08/02 01:25:29;;;;;;;2.33;1.50;;;20.30;65.60;;;;;;4907698;29;20124;-80
2023/08/02 01:28:00;;;;;;;1.83;1.27;;;20.30;65.60;;;;;;4893370;29;20112;-81
2023/08/02 01:30:32;;;;;;;1.45;1.30;;;20.30;65.70;;;;;;4887584;29;20033;-80
2023/08/02 01:32:59;;;;;;;1.77;1.35;;;20.20;65.70;;;;;;4894533;29;20071;-81
2023/08/02 01:35:26;;;;;;;3.10;1.60;;;20.30;65.70;;;;;;4894843;29;20033;-80
2023/08/02 01:37:53;;;;;;;1.50;1.20;;;20.20;65.70;;;;;;4910457;29;20032;-79
2023/08/02 01:40:19;;;;;;;2.75;1.60;;;20.20;66.40;;;;;;4910329;29;20033;-80
2023/08/02 01:42:45;;;;;;;2.72;1.50;;;20.20;65.70;;;;;;4891401;29;20056;-80
2023/08/02 01:45:11;;;;;;;3.60;1.73;;;20.20;65.80;;;;;;4879506;29;20996;-80
2023/08/02 01:47:37;;;;;;;2.83;1.40;;;20.20;65.80;;;;;;4888092;29;20044;-80
2023/08/02 01:50:03;;;;;;;2.53;1.70;;;20.10;65.80;;;;;;4878661;29;20036;-79
2023/08/02 01:52:29;;;;;;;2.45;1.55;;;20.10;65.80;;;;;;4879783;29;20025;-80
2023/08/02 01:54:55;;;;;;;1.50;1.25;;;20.10;65.80;;;;;;4892923;29;20399;-80
2023/08/02 01:57:20;;;;;;;2.17;1.38;;;20.10;65.90;;;;;;4886233;29;20045;-80
2023/08/02 01:59:46;;;;;;;2.20;1.63;;;20.00;65.90;;;;;;4877226;29;20039;-81
2023/08/02 02:02:12;;;;;;;2.00;1.27;;;20.00;65.90;;;;;;4877823;29;20125;-80
2023/08/02 02:04:38;;;;;;;2.72;1.50;;;20.00;65.90;;;;;;4878357;29;20115;-80
2023/08/02 02:07:04;;;;;;;2.55;1.60;;;20.00;66.00;;;;;;4896862;29;20037;-80
2023/08/02 02:09:29;;;;;;;1.80;1.30;;;20.00;66.00;;;;;;4894280;29;20040;-80
2023/08/02 02:11:55;;;;;;;1.60;1.25;;;19.90;66.00;;;;;;4884109;29;20044;-80
2023/08/02 02:14:21;;;;;;;1.60;1.20;;;19.90;66.00;;;;;;4874764;29;20089;-80
2023/08/02 02:16:46;;;;;;;1.45;1.30;;;19.90;66.00;;;;;;4883443;29;20068;-80
2023/08/02 02:19:12;;;;;;;2.42;1.35;;;19.90;66.10;;;;;;4877107;29;20032;-80
2023/08/02 02:21:38;;;;;;;1.95;1.35;;;19.90;66.50;;;;;;4895956;29;20032;-80
2023/08/02 02:24:04;;;;;;;1.67;1.35;;;19.90;66.10;;;;;;4877993;29;20459;-80
2023/08/02 02:26:30;;;;;;;1.77;1.42;;;19.80;66.10;;;;;;4898947;29;20040;-81
2023/08/02 02:28:55;;;;;;;2.05;1.35;;;19.80;66.20;;;;;;4910466;29;20430;-80
2023/08/02 02:31:22;;;;;;;1.90;1.40;;;19.80;66.30;;;;;;4893465;29;20052;-80
2023/08/02 02:33:49;;;;;;;2.97;1.60;;;19.80;66.30;;;;;;4878442;29;20119;-79
2023/08/02 02:36:15;;;;;;;2.38;1.30;;;19.80;66.30;;;;;;4887722;29;20252;-80
2023/08/02 02:38:41;;;;;;;2.05;1.30;;;19.80;66.30;;;;;;4894516;29;20402;-80
2023/08/02 02:41:07;;;;;;;2.88;1.58;;;19.70;66.30;;;;;;4879264;29;20119;-81
2023/08/02 02:43:32;;;;;;;3.40;1.55;;;19.70;66.30;;;;;;4893536;29;20037;-80
2023/08/02 02:45:59;;;;;;;2.30;1.60;;;19.70;66.30;;;;;;4892987;29;20052;-79
2023/08/02 02:48:24;;;;;;;3.28;1.40;;;19.70;66.30;;;;;;4893680;29;20132;-80
2023/08/02 02:50:52;;;;;;;2.85;1.30;;;19.70;66.30;;;;;;4910247;29;20566;-80
2023/08/02 02:53:20;;;;;;;1.40;1.20;;;19.70;66.40;;;;;;4893584;29;20115;-80
2023/08/02 02:55:46;;;;;;;1.83;1.45;;;19.70;66.40;;;;;;4863594;29;20081;-80
2023/08/02 02:58:12;;;;;;;1.65;1.20;;;19.70;66.40;;;;;;4880575;29;20127;-81
2023/08/02 03:00:38;;;;;;;1.92;1.40;;;19.60;66.40;;;;;;4893376;29;20169;-80
2023/08/02 03:03:03;;;;;;;1.85;1.20;;;19.60;66.50;;;;;;4878310;29;20056;-80
2023/08/02 03:05:29;;;;;;;2.85;1.35;;;19.60;66.50;;;;;;4908610;29;20116;-81
2023/08/02 03:07:55;;;;;;;2.00;1.40;;;19.60;66.60;;;;;;4864035;29;20049;-80
2023/08/02 03:10:21;;;;;;;2.10;1.30;;;19.60;66.60;;;;;;4902374;29;20048;-81
2023/08/02 03:12:47;;;;;;;1.33;1.23;;;19.60;66.60;;;;;;4897731;29;20053;-80
2023/08/02 03:15:13;;;;;;;1.90;1.10;;;19.60;66.60;;;;;;4870297;29;20132;-80
2023/08/02 03:17:38;;;;;;;2.05;1.40;;;19.50;66.60;;;;;;4878460;29;20041;-80
2023/08/02 03:20:05;;;;;;;2.40;1.40;;;19.60;66.70;;;;;;4863378;29;20545;-80
2023/08/02 03:22:32;;;;;;;3.15;1.40;;;19.60;66.70;;;;;;4878994;29;20054;-81
2023/08/02 03:24:57;;;;;;;1.40;1.27;;;19.50;66.60;;;;;;4895290;29;20032;-81
2023/08/02 03:27:23;;;;;;;1.90;1.33;;;19.50;66.70;;;;;;4890031;29;20113;-80
2023/08/02 03:29:49;;;;;;;1.75;1.30;;;19.50;66.60;;;;;;4878013;29;20029;-79
2023/08/02 03:32:15;;;;;;;1.30;1.20;;;19.50;66.70;;;;;;4878581;29;20120;-80
2023/08/02 03:34:41;;;;;;;3.08;1.52;;;19.50;66.70;;;;;;4890261;29;20077;-81
2023/08/02 03:37:06;;;;;;;3.42;1.50;;;19.50;66.70;;;;;;4893435;29;20041;-80
2023/08/02 03:39:32;;;;;;;3.53;1.90;;;19.50;66.70;;;;;;4891323;29;20081;-81
2023/08/02 03:41:58;;;;;;;1.73;1.35;;;19.40;66.70;;;;;;4897186;29;20386;-81
2023/08/02 03:44:23;;;;;;;1.92;1.50;;;19.50;66.80;;;;;;4896687;29;20533;-80
2023/08/02 03:46:49;;;;;;;2.00;1.38;;;19.40;66.80;;;;;;4897667;29;20411;-81
2023/08/02 03:49:15;;;;;;;2.38;1.67;;;19.40;66.80;;;;;;4897681;29;20029;-79
2023/08/02 03:51:41;;;;;;;2.72;1.45;;;19.40;66.80;;;;;;4897271;29;20033;-80
2023/08/02 03:54:08;;;;;;;1.52;1.30;;;19.40;66.80;;;;;;4900188;29;20029;-80
2023/08/02 03:56:33;;;;;;;2.60;1.42;;;19.40;66.90;;;;;;4897286;29;20065;-81
2023/08/02 03:58:59;;;;;;;2.17;1.40;;;19.40;66.90;;;;;;4898742;29;20040;-80
2023/08/02 04:01:25;;;;;;;1.73;1.30;;;19.40;66.90;;;;;;4894674;29;20044;-81
2023/08/02 04:03:51;;;;;;;2.15;1.52;;;19.40;66.90;;;;;;4901455;29;20367;-80
2023/08/02 04:06:16;;;;;;;2.75;1.67;;;19.40;67.00;;;;;;4899513;29;20028;-80
2023/08/02 04:08:42;;;;;;;2.15;1.45;;;19.40;67.00;;;;;;4897403;29;20555;-80
2023/08/02 04:11:09;;;;;;;1.98;1.25;;;19.40;67.00;;;;;;4880410;29;20036;-80
2023/08/02 04:13:34;;;;;;;2.28;1.50;;;19.40;67.00;;;;;;4896662;29;20061;-80
2023/08/02 04:16:01;;;;;;;2.47;1.50;;;19.30;67.00;;;;;;4896722;29;20075;-81
2023/08/02 04:18:27;;;;;;;1.88;1.40;;;19.30;67.00;;;;;;4896574;29;20040;-82
2023/08/02 04:20:53;;;;;;;1.60;1.30;;;19.30;67.00;;;;;;4880345;29;20394;-80
2023/08/02 04:23:19;;;;;;;1.67;1.30;;;19.30;67.00;;;;;;4904300;29;20036;-81
2023/08/02 04:25:44;;;;;;;1.65;1.30;;;19.30;67.00;;;;;;4880932;29;20040;-81
2023/08/02 04:28:10;;;;;;;1.83;1.13;;;19.30;67.10;;;;;;4884490;29;20040;-80
2023/08/02 04:30:36;;;;;;;2.15;1.33;;;19.30;67.20;;;;;;4895335;29;20402;-81
2023/08/02 04:33:01;;;;;;;1.30;1.20;;;19.30;67.10;;;;;;4879254;29;20036;-81
2023/08/02 04:35:29;;;;;;;1.85;1.40;;;19.30;67.20;;;;;;4873142;29;20120;-81
2023/08/02 04:37:54;;;;;;;1.98;1.50;;;19.30;67.20;;;;;;4911769;29;20032;-80
2023/08/02 04:40:20;;;;;;;2.15;1.38;;;19.30;67.20;;;;;;4896637;29;20040;-80
2023/08/02 04:42:47;;;;;;;1.55;1.40;;;19.30;67.20;;;;;;4880448;29;20033;-81
2023/08/02 04:45:14;;;;;;;2.03;1.30;;;19.30;67.20;;;;;;4892543;29;20108;-80
2023/08/02 04:47:40;;;;;;;1.83;1.15;;;19.30;67.20;;;;;;4895856;29;20045;-79
2023/08/02 04:50:06;;;;;;;2.00;1.38;;;19.30;67.30;;;;;;4897714;29;20085;-80
2023/08/02 04:52:33;;;;;;;1.55;1.10;;;19.30;67.30;;;;;;4881546;29;20048;-82
2023/08/02 04:54:59;;;;;;;1.48;1.30;;;19.30;67.30;;;;;;4890503;29;20036;-80
2023/08/02 04:57:25;;;;;;;2.22;1.40;;;19.30;67.30;;;;;;4895587;29;20139;-81
2023/08/02 04:59:54;;;;;;;2.22;1.48;;;19.30;67.30;;;;;;4895284;29;20466;-79
2023/08/02 05:02:28;;;;;;;1.42;1.27;;;19.30;67.40;;;;;;4866556;29;20088;-79
2023/08/02 05:04:54;;;;;;;1.20;1.10;;;19.30;67.30;;;;;;4878061;29;20489;-79
2023/08/02 05:07:20;;;;;;;1.58;1.27;;;19.30;67.30;;;;;;4892910;29;20115;-79
2023/08/02 05:09:46;;;;;;;1.65;1.40;;;19.30;67.30;;;;;;4901831;29;20774;-80
2023/08/02 05:12:11;;;;;;;1.45;1.17;;;19.30;67.40;;;;;;4901319;29;20592;-80
2023/08/02 05:14:37;;;;;;;1.65;1.30;;;19.30;67.40;;;;;;4879741;29;20056;-80
2023/08/02 05:17:07;;;;;;;1.77;1.30;;;19.30;67.40;;;;;;4902110;29;20100;-81
2023/08/02 05:19:33;;;;;;;1.65;1.25;;;19.30;67.40;;;;;;4880970;29;20044;-84
2023/08/02 05:21:59;;;;;;;1.42;1.33;;;19.30;67.50;;;;;;4901250;29;20048;-83
2023/08/02 05:24:25;;;;;;;1.10;1.10;;;19.30;67.50;;;;;;4877146;29;20397;-80
2023/08/02 05:26:51;;;;;;;1.63;1.30;;;19.30;67.50;;;;;;4877654;29;20375;-80
2023/08/02 05:29:16;;;;;;;1.45;1.30;;;19.30;67.50;;;;;;4909757;29;20085;-79
2023/08/02 05:31:42;;;;;;;1.65;1.33;;;19.30;67.50;;;;;;4876552;29;20379;-80
2023/08/02 05:34:08;;;;;;;2.15;1.50;;;19.30;67.50;;;;;;4904042;29;20044;-81
2023/08/02 05:36:33;;;;;;;1.75;1.30;;;19.30;67.60;;;;;;4892228;29;20367;-82
2023/08/02 05:38:59;;;;;;;1.75;1.40;;;19.30;67.50;;;;;;4893019;29;20119;-79
2023/08/02 05:41:25;;;;;;;2.28;1.33;;;19.30;67.60;;;;;;4896129;29;20028;-80
2023/08/02 05:43:51;;;;;;;1.77;1.33;;;19.30;67.60;;;;;;4880624;29;20486;-80
2023/08/02 05:46:16;;;;;;;1.85;1.40;;;19.30;67.60;;;;;;4892366;29;20040;-81
2023/08/02 05:48:42;;;;;;;2.03;1.40;;;19.30;67.60;;;;;;4895875;29;20036;-80
2023/08/02 05:51:08;;;;;;;1.80;1.20;;;19.30;67.60;;;;;;4877037;29;20421;-81
2023/08/02 05:53:33;;;;;;;1.67;1.40;;;19.30;67.60;;;;;;4895909;29;20048;-81
2023/08/02 05:55:59;;;;;;;2.60;1.40;;;19.30;67.70;;;;;;4896727;29;20093;-82
2023/08/02 05:58:25;;;;;;;2.38;1.45;;;19.30;67.60;;;;;;4875889;29;20061;-82
2023/08/02 06:00:51;;;;;;;2.53;1.83;;;19.40;67.80;;;;;;4876938;29;20521;-82
2023/08/02 06:03:16;;;;;;;1.48;1.27;;;19.30;67.70;;;;;;4895615;29;20040;-82
2023/08/02 06:05:42;;;;;;;1.42;1.27;;;19.30;67.70;;;;;;4895681;29;20036;-82
2023/08/02 06:08:08;;;;;;;2.10;1.40;;;19.40;67.90;;;;;;4880904;29;20390;-82
2023/08/02 06:10:33;;;;;;;2.22;1.40;;;19.40;67.80;;;;;;4895545;29;20409;-82
2023/08/02 06:12:59;;;;;;;1.75;1.20;;;19.40;67.80;;;;;;4888113;29;20040;-82
2023/08/02 06:15:25;;;;;;;1.35;1.17;;;19.40;67.80;;;;;;4895826;29;20061;-81
2023/08/02 06:17:51;;;;;;;1.95;1.25;;;19.40;67.80;;;;;;4903352;29;20542;-81
2023/08/02 06:20:17;;;;;;;1.55;1.30;;;19.40;67.80;;;;;;4903519;29;20048;-81
2023/08/02 06:22:43;;;;;;;2.75;1.60;;;19.40;67.80;;;;;;4884449;29;20029;-81
2023/08/02 06:25:09;;;;;;;2.15;1.40;;;19.40;67.80;;;;;;4892218;29;20357;-80
2023/08/02 06:27:34;;;;;;;1.83;1.30;;;19.40;67.80;;;;;;4863854;29;20036;-80
2023/08/02 06:30:00;;;;;;;1.33;1.20;;;19.40;67.80;;;;;;4897069;29;20064;-80
2023/08/02 06:32:26;;;;;;;1.55;1.30;;;19.40;67.80;;;;;;4880503;29;20433;-80
2023/08/02 06:34:52;;;;;;;2.00;1.17;;;19.40;67.90;;;;;;4879221;29;20037;-83
2023/08/02 06:37:18;;;;;;;2.45;1.50;;;19.40;67.90;;;;;;4895193;29;20131;-80
2023/08/02 06:39:43;;;;;;;1.80;1.20;;;19.40;67.90;;;;;;4863922;29;20508;-80
2023/08/02 06:42:09;;;;;;;1.60;1.30;;;19.40;68.50;;;;;;4895172;29;20488;-80
2023/08/02 06:44:35;;;;;;;2.92;1.45;;;19.40;67.90;;;;;;4899848;29;20025;-81
2023/08/02 06:47:01;;;;;;;1.95;1.30;;;19.40;67.90;;;;;;4895249;29;20505;-80
2023/08/02 06:49:26;;;;;;;1.88;1.45;;;19.40;67.90;;;;;;4894223;29;20040;-80
2023/08/02 06:51:52;;;;;;;1.50;1.20;;;19.40;67.90;;;;;;4903090;29;20033;-80
2023/08/02 06:54:18;;;;;;;1.70;1.30;;;19.40;67.90;;;;;;4899494;29;20448;-80
2023/08/02 06:56:44;;;;;;;1.55;1.30;;;19.40;67.90;;;;;;4893771;29;20127;-80
2023/08/02 06:59:09;;;;;;;1.73;1.30;;;19.40;67.90;;;;;;4909807;29;20035;-80
2023/08/02 07:01:35;;;;;;;2.03;1.48;;;19.40;67.90;;;;;;4895389;29;20036;-80
2023/08/02 07:04:01;;;;;;;1.80;1.50;;;19.40;68.00;;;;;;4893076;29;20029;-80
2023/08/02 07:06:27;;;;;;;1.92;1.48;;;19.40;68.00;;;;;;4879654;29;20041;-79
2023/08/02 07:08:52;;;;;;;2.22;1.52;;;19.40;68.00;;;;;;4894818;29;20040;-79
2023/08/02 07:11:18;;;;;;;2.22;1.45;;;19.40;68.00;;;;;;4864248;29;20032;-79
2023/08/02 07:13:45;;;;;;;1.60;1.27;;;19.40;68.10;;;;;;4863864;29;20033;-79
2023/08/02 07:16:11;;;;;;;2.30;1.38;;;19.40;68.10;;;;;;4896556;29;20064;-79
2023/08/02 07:18:38;;;;;;;1.83;1.40;;;19.40;68.70;;;;;;4879608;29;20040;-79
2023/08/02 07:21:07;;;;;;;2.05;1.33;;;19.40;68.10;;;;;;4900016;29;20020;-79
2023/08/02 07:23:34;;;;;;;1.85;1.30;;;19.40;68.20;;;;;;4883028;29;20071;-79
2023/08/02 07:26:00;;;;;;;1.95;1.42;;;19.40;68.10;;;;;;4882252;29;20040;-79
2023/08/02 07:28:26;;;;;;;2.63;1.60;;;19.40;68.20;;;;;;4911049;29;20055;-79
2023/08/02 07:30:52;;;;;;;1.85;1.33;;;19.40;68.20;;;;;;4893502;29;20087;-79
2023/08/02 07:33:18;;;;;;;2.22;1.38;;;19.40;68.20;;;;;;4882790;29;20028;-79
2023/08/02 07:35:46;;;;;;;1.45;1.30;;;19.40;68.20;;;;;;4898322;29;20033;-79
2023/08/02 07:38:15;;;;;;;1.52;1.33;;;19.40;68.20;;;;;;4877217;29;20040;-79
2023/08/02 07:40:43;;;;;;;1.42;1.33;;;19.40;68.30;;;;;;4887835;29;20119;-79
2023/08/02 07:43:09;;;;;;;2.33;1.50;;;19.50;68.30;;;;;;4913661;29;20039;-80
2023/08/02 07:45:35;;;;;;;1.80;1.50;;;19.40;68.30;;;;;;4867395;29;20478;-80
2023/08/02 07:48:01;;;;;;;1.42;1.33;;;19.40;68.30;;;;;;4897718;29;20039;-81
2023/08/02 07:50:27;;;;;;;2.08;1.52;;;19.40;68.40;;;;;;4900769;29;20497;-79
2023/08/02 07:52:52;;;;;;;1.88;1.50;;;19.40;68.50;;;;;;4864704;29;20076;-78
2023/08/02 07:55:18;;;;;;;1.63;1.25;;;19.50;68.50;;;;;;4880119;29;20029;-79
2023/08/02 07:57:44;;;;;;;1.60;1.40;;;19.50;68.60;;;;;;4911753;29;20072;-79
2023/08/02 08:00:10;;;;;;;2.40;1.27;;;19.50;68.60;;;;;;4913252;29;20402;-79
2023/08/02 08:02:39;;;;;;;1.20;1.10;;;19.50;68.60;;;;;;4898410;29;20127;-80
2023/08/02 08:05:06;;;;;;;1.40;1.25;;;19.50;68.60;;;;;;4897646;29;20032;-79
2023/08/02 08:07:32;;;;;;;1.55;1.30;;;19.50;68.70;;;;;;4898468;29;20033;-79
2023/08/02 08:09:58;;;;;;;1.38;1.10;;;19.50;68.60;;;;;;4896836;29;20482;-79
2023/08/02 08:12:25;;;;;;;1.38;1.10;;;19.50;68.60;;;;;;4896143;29;20092;-80
2023/08/02 08:14:51;;;;;;;1.35;1.15;;;19.50;68.70;;;;;;4893325;29;20128;-80
2023/08/02 08:17:17;;;;;;;1.25;1.15;;;19.50;68.60;;;;;;4897457;29;20044;-79
2023/08/02 08:19:47;;;;;;;1.30;1.20;;;19.50;68.70;;;;;;4887624;29;20025;-80
2023/08/02 08:22:12;;;;;;;1.17;1.08;;;19.60;68.80;;;;;;4888241;29;20056;-79
2023/08/02 08:24:38;;;;;;;1.40;1.20;;;19.60;68.80;;;;;;4896423;29;20505;-80
2023/08/02 08:27:04;;;;;;;1.30;1.20;;;19.50;68.70;;;;;;4902950;29;20427;-79
2023/08/02 08:29:30;;;;;;;1.40;1.00;;;19.60;68.80;;;;;;4896808;29;20061;-79
2023/08/02 08:31:55;;;;;;;1.10;1.00;;;19.60;68.80;;;;;;4879948;29;20033;-79
2023/08/02 08:34:21;;;;;;;1.10;1.00;;;19.60;68.80;;;;;;4881627;29;20037;-79
2023/08/02 08:36:47;;;;;;;1.30;1.20;;;19.60;68.80;;;;;;4865864;29;20028;-79
2023/08/02 08:39:13;;;;;;;1.95;1.40;;;19.60;68.90;;;;;;4897353;29;20470;-79
2023/08/02 08:41:38;;;;;;;1.63;1.23;;;19.60;68.80;;;;;;4880624;29;20049;-79
2023/08/02 08:44:04;;;;;;;1.10;1.00;;;19.60;68.90;;;;;;4861933;29;20092;-79
2023/08/02 08:46:31;;;;;;;1.17;1.08;;;19.60;69.00;;;;;;4896346;29;20033;-80
2023/08/02 08:48:59;;;;;;;1.20;1.00;;;19.60;69.00;;;;;;4860102;29;20036;-79
2023/08/02 08:51:27;;;;;;;1.70;1.17;;;19.60;69.00;;;;;;4911325;29;20037;-79
2023/08/02 08:53:54;;;;;;;0.90;0.90;;;19.60;69.00;;;;;;4894970;29;20047;-79
2023/08/02 08:56:24;;;;;;;1.38;1.10;;;19.60;69.00;;;;;;4893407;29;20032;-79
2023/08/02 08:58:52;;;;;;;1.15;1.05;;;19.70;69.10;;;;;;4873965;29;20072;-79
2023/08/02 09:01:19;;;;;;;1.20;1.10;;;19.70;69.10;;;;;;4894491;29;20112;-79
2023/08/02 09:03:45;;;;;;;1.50;0.90;;;19.70;69.10;;;;;;4895817;29;20040;-79
2023/08/02 09:06:13;;;;;;;1.00;0.90;;;19.70;69.10;;;;;;4897171;29;20037;-80
2023/08/02 09:08:44;;;;;;;0.90;0.90;;;19.70;69.10;;;;;;4896978;29;20135;-79
2023/08/02 09:11:11;;;;;;;1.10;1.00;;;19.60;69.10;;;;;;4912423;29;20477;-79
2023/08/02 09:13:37;;;;;;;0.90;0.90;;;19.70;69.10;;;;;;4912207;29;20517;-79
2023/08/02 09:16:10;;;;;;;0.85;0.82;;;19.70;69.10;;;;;;4892734;29;20064;-79
2023/08/02 09:18:42;;;;;;;0.93;0.82;;;19.70;69.10;;;;;;4912233;29;20099;-79
2023/08/02 09:21:09;;;;;;;1.15;1.05;;;19.70;69.10;;;;;;4909625;29;20024;-79
2023/08/02 09:23:35;;;;;;;1.20;1.10;;;19.70;69.00;;;;;;4890395;29;20525;-79
2023/08/02 09:26:21;;;;;;;0.95;0.90;;;19.70;69.00;;;;;;4896231;29;20028;-79
2023/08/02 09:29:01;;;;;;;0.80;0.80;;;19.70;69.10;;;;;;4895843;29;20052;-79
2023/08/02 09:31:29;;;;;;;0.77;0.73;;;19.80;69.10;;;;;;4880817;29;20048;-79
2023/08/02 09:33:55;;;;;;;0.70;0.70;;;19.80;69.00;;;;;;4880599;29;20056;-79
2023/08/02 09:36:22;;;;;;;0.98;0.90;;;19.80;69.00;;;;;;4880439;29;20083;-79
2023/08/02 09:39:01;;;;;;;1.10;1.00;;;19.80;69.00;;;;;;4894161;29;20032;-79
2023/08/02 09:41:28;;;;;;;0.80;0.80;;;19.80;69.00;;;;;;4896078;29;20521;-79
2023/08/02 09:43:54;;;;;;;0.70;0.70;;;19.80;68.90;;;;;;4896118;29;20029;-79
2023/08/02 09:46:30;;;;;;;1.00;0.90;;;19.80;68.90;;;;;;4907876;29;20028;-80
2023/08/02 09:48:59;;;;;;;0.85;0.85;;;19.90;69.00;;;;;;4905688;29;20032;-79
2023/08/02 09:51:40;;;;;;;0.70;0.70;;;19.90;68.90;;;;;;4895760;29;20033;-78
2023/08/02 09:54:07;;;;;;;0.70;0.70;;;19.90;68.90;;;;;;4896497;29;20184;-79
2023/08/02 09:56:35;;;;;;;1.10;1.00;;;19.90;68.80;;;;;;4893610;29;20045;-78
2023/08/02 09:59:02;;;;;;;1.00;0.93;;;20.00;68.80;;;;;;4894631;29;20096;-81
2023/08/02 10:01:29;;;;;;;1.30;1.20;;;20.00;68.70;;;;;;4895211;29;20028;-79
2023/08/02 10:03:58;;;;;;;0.70;0.70;;;20.10;68.80;;;;;;4880227;29;20035;-78
2023/08/02 10:06:52;;;;;;;0.90;0.90;;;20.10;68.70;;;;;;4895515;29;20068;-78
2023/08/02 10:09:30;;;;;;;1.00;0.90;;;20.10;68.70;;;;;;4895541;29;20176;-78
2023/08/02 10:12:08;;;;;;;1.80;0.93;;;20.20;68.70;;;;;;4892183;29;20288;-78
2023/08/02 10:14:35;;;;;;;0.90;0.82;;;20.20;68.70;;;;;;4901812;29;20139;-78
2023/08/02 10:17:02;;;;;;;0.95;0.88;;;20.20;68.50;;;;;;4895331;29;20036;-78
2023/08/02 10:19:29;;;;;;;0.77;0.77;;;20.30;68.60;;;;;;4894556;29;20029;-80
2023/08/02 10:22:03;;;;;;;0.80;0.80;;;20.30;68.50;;;;;;4880012;29;20065;-81
2023/08/02 10:24:29;;;;;;;0.80;0.80;;;20.30;68.50;;;;;;4878551;29;21079;-79
2023/08/02 10:27:01;;;;;;;1.35;0.90;;;20.40;68.50;;;;;;4880123;29;20706;-81
2023/08/02 10:29:34;;;;;;;0.70;0.70;;;20.50;68.60;;;;;;4895466;29;20047;-78
2023/08/02 10:32:21;;;;;;;0.95;0.82;;;20.50;68.50;;;;;;4895892;29;20028;-82
2023/08/02 10:34:51;;;;;;;0.90;0.90;;;20.60;68.60;;;;;;4909135;29;20041;-82
2023/08/02 10:37:19;;;;;;;0.88;0.88;;;20.60;68.60;;;;;;4879961;29;20059;-82
2023/08/02 10:39:47;;;;;;;0.80;0.80;;;20.70;68.60;;;;;;4893921;29;20100;-82
2023/08/02 10:42:14;;;;;;;0.85;0.85;;;20.70;68.60;;;;;;4895540;29;20036;-82
2023/08/02 10:44:55;;;;;;;0.80;0.80;;;20.70;68.60;;;;;;4895423;29;20029;-81
2023/08/02 10:47:30;;;;;;;1.00;0.90;;;20.80;68.70;;;;;;4894665;29;20378;-81
2023/08/02 10:49:58;;;;;;;1.05;1.00;;;20.80;68.60;;;;;;4905063;29;20541;-82
2023/08/02 10:52:28;;;;;;;0.77;0.77;;;20.90;68.50;;;;;;4896655;29;20029;-79
2023/08/02 10:55:07;;;;;;;0.88;0.80;;;20.90;68.50;;;;;;4883279;29;20024;-79
2023/08/02 10:57:34;;;;;;;0.80;0.80;;;21.00;68.70;;;;;;4914647;29;20450;-80
2023/08/02 11:00:00;;;;;;;0.88;0.88;;;21.00;68.50;;;;;;4898036;29;20405;-80
2023/08/02 11:02:42;;;;;;;0.80;0.80;;;21.10;68.50;;;;;;4907599;29;20035;-81
2023/08/02 11:05:08;;;;;;;1.02;0.95;;;21.10;68.40;;;;;;4908322;29;20033;-80
2023/08/02 11:07:35;;;;;;;1.00;0.93;;;21.20;68.50;;;;;;4884436;29;20044;-80
2023/08/02 11:10:05;;;;;;;0.80;0.80;;;21.20;68.40;;;;;;4898735;29;20398;-81
2023/08/02 11:12:32;;;;;;;0.98;0.88;;;21.30;68.50;;;;;;4899709;29;20036;-80
2023/08/02 11:14:57;;;;;;;1.10;0.98;;;21.30;68.40;;;;;;4898559;29;20204;-80
2023/08/02 11:17:24;;;;;;;0.85;0.85;;;21.40;68.40;;;;;;4898354;29;20149;-80
2023/08/02 11:19:51;;;;;;;0.80;0.80;;;21.40;69.00;;;;;;4896842;29;20041;-79
2023/08/02 11:22:18;;;;;;;0.80;0.80;;;21.40;68.30;;;;;;4884370;29;20061;-80
2023/08/02 11:24:45;;;;;;;0.95;0.73;;;21.50;68.20;;;;;;4876708;29;20032;-82
2023/08/02 11:27:18;;;;;;;0.70;0.70;;;21.60;68.20;;;;;;4903264;29;20115;-81
2023/08/02 11:30:01;;;;;;;1.02;0.90;;;21.60;68.20;;;;;;4898210;29;20029;-79
2023/08/02 11:32:28;;;;;;;1.00;0.90;;;21.70;68.30;;;;;;4904603;29;20044;-82
2023/08/02 11:34:54;;;;;;;0.63;0.63;;;21.70;68.00;;;;;;4913875;29;20140;-81
2023/08/02 11:37:22;;;;;;;0.75;0.75;;;21.70;68.00;;;;;;4896213;29;20124;-81
2023/08/02 11:39:55;;;;;;;0.68;0.68;;;21.80;68.00;;;;;;4899509;29;20033;-84
2023/08/02 11:42:21;;;;;;;0.75;0.75;;;21.80;68.10;;;;;;4898178;29;20039;-80
2023/08/02 11:44:47;;;;;;;0.85;0.80;;;21.90;68.10;;;;;;4882965;29;20378;-80
2023/08/02 11:47:13;;;;;;;0.70;0.70;;;21.90;68.00;;;;;;4897872;29;20107;-80
2023/08/02 11:49:56;;;;;;;0.70;0.70;;;21.90;67.80;;;;;;4898758;29;20036;-79
2023/08/02 11:52:25;;;;;;;0.82;0.82;;;21.90;68.10;;;;;;4899156;29;20035;-79
2023/08/02 11:54:53;;;;;;;0.50;0.50;;;22.00;68.00;;;;;;4897146;29;20115;-79
2023/08/02 11:57:20;;;;;;;0.90;0.90;;;21.90;67.90;;;;;;4881963;29;20515;-79
2023/08/02 11:59:47;;;;;;;0.70;0.70;;;22.00;68.00;;;;;;4897413;29;20185;-80
2023/08/02 12:02:35;;;;;;;0.70;0.70;;;22.00;68.00;;;;;;4878413;29;20458;-81
2023/08/02 12:05:05;;;;;;;0.70;0.70;;;22.00;68.10;;;;;;4895375;29;20057;-81
2023/08/02 12:07:33;;;;;;;0.52;0.52;;;22.00;68.00;;;;;;4873177;29;20120;-80
2023/08/02 12:10:06;;;;;;;0.73;0.73;;;22.00;68.00;;;;;;4894546;29;20033;-80
2023/08/02 12:12:33;;;;;;;0.70;0.70;;;22.10;68.10;;;;;;4889839;29;20017;-80
2023/08/02 12:15:11;;;;;;;0.80;0.80;;;22.10;68.00;;;;;;4881699;29;20049;-81
2023/08/02 12:17:37;;;;;;;0.50;0.50;;;22.10;68.10;;;;;;4892012;29;20386;-81
2023/08/02 12:20:06;;;;;;;0.85;0.80;;;22.10;68.00;;;;;;4879296;29;20025;-80
2023/08/02 12:22:50;;;;;;;0.80;0.80;;;22.20;68.00;;;;;;4892538;29;20033;-84
2023/08/02 12:25:15;;;;;;;0.70;0.70;;;22.20;68.00;;;;;;4881717;29;20124;-82
2023/08/02 12:27:41;;;;;;;0.60;0.60;;;22.20;67.90;;;;;;4881774;29;20421;-80
2023/08/02 12:30:10;;;;;;;0.70;0.70;;;22.20;67.90;;;;;;4889401;29;20050;-81
2023/08/02 12:32:36;;;;;;;0.95;0.77;;;22.30;68.00;;;;;;4894325;29;20140;-81
2023/08/02 12:35:06;;;;;;;0.70;0.70;;;22.30;67.90;;;;;;4908863;29;20059;-80
2023/08/02 12:37:32;;;;;;;0.60;0.60;;;22.30;67.80;;;;;;4894541;29;20038;-85
2023/08/02 12:39:58;;;;;;;0.70;0.65;;;22.30;67.80;;;;;;4877007;29;20037;-85
2023/08/02 12:42:24;;;;;;;0.60;0.60;;;22.40;67.90;;;;;;4881766;29;20120;-86
2023/08/02 12:44:50;;;;;;;0.80;0.80;;;22.40;67.80;;;;;;4896299;29;20032;-82
2023/08/02 12:47:15;;;;;;;0.82;0.70;;;22.40;67.90;;;;;;4896219;29;20039;-81
2023/08/02 12:49:41;;;;;;;0.50;0.50;;;22.40;67.80;;;;;;4896491;29;20059;-82